Time;durP1;ratioP1;P1;durP2;ratioP2;P2;SDS_P1;SDS_P2;PMS_P1;PMS_P2;Temp;Humidity;BMP_temperature;BMP_pressure;BME280_temperature;BME280_humidity;BME280_pressure;Samples;Min_cycle;Max_cycle;Signal;HPM_P1;HPM_P2
2024/02/20 00:00:57;;;;;;;30.88;5.50;;;;;;;;;;4988254;28;20508;-69
2024/02/20 00:03:22;;;;;;;28.43;5.00;;;;;;;;;;4989410;28;20097;-69
2024/02/20 00:05:47;;;;;;;37.07;5.60;;;;;;;;;;4989285;28;20469;-69
2024/02/20 00:08:12;;;;;;;33.65;4.65;;;;;;;;;;4988757;28;20450;-69
2024/02/20 00:10:38;;;;;;;30.50;4.73;;;;;;;;;;4989999;28;20085;-69
2024/02/20 00:13:03;;;;;;;30.70;3.97;;;;;;;;;;4983183;28;20777;-69
2024/02/20 00:15:28;;;;;;;27.08;4.75;;;;;;;;;;4984928;28;20070;-69
2024/02/20 00:17:53;;;;;;;30.97;4.03;;;;;;;;;;4988802;28;20026;-69
2024/02/20 00:20:18;;;;;;;27.27;4.95;;;;;;;;;;4988233;28;20342;-69
2024/02/20 00:22:44;;;;;;;39.93;5.57;;;;;;;;;;4988808;28;20026;-69
2024/02/20 00:25:09;;;;;;;36.23;5.23;;;;;;;;;;4988895;28;20260;-70
2024/02/20 00:27:35;;;;;;;42.92;5.20;;;;;;;;;;4980903;28;20284;-69
2024/02/20 00:30:00;;;;;;;30.13;4.50;;;;;;;;;;4988967;28;20117;-69
2024/02/20 00:32:25;;;;;;;37.08;5.60;;;;;;;;;;4992929;28;20089;-69
2024/02/20 00:34:50;;;;;;;40.63;4.07;;;;;;;;;;4993066;28;20022;-69
2024/02/20 00:37:15;;;;;;;30.45;5.72;;;;;;;;;;4992847;28;20270;-69
2024/02/20 00:39:41;;;;;;;37.17;5.77;;;;;;;;;;4993379;28;20030;-69
2024/02/20 00:42:07;;;;;;;39.72;5.32;;;;;;;;;;4992084;28;20360;-69
2024/02/20 00:44:32;;;;;;;35.05;5.70;;;;;;;;;;4989064;28;20081;-69
2024/02/20 00:46:57;;;;;;;25.98;4.45;;;;;;;;;;4992622;28;20058;-69
2024/02/20 00:49:23;;;;;;;31.40;5.87;;;;;;;;;;4993096;28;20489;-69
2024/02/20 00:51:48;;;;;;;44.08;6.13;;;;;;;;;;4992836;28;20854;-69
2024/02/20 00:54:14;;;;;;;37.10;5.67;;;;;;;;;;4992628;28;20109;-69
2024/02/20 00:56:39;;;;;;;24.87;5.13;;;;;;;;;;4992764;28;20257;-69
2024/02/20 00:59:04;;;;;;;43.42;4.47;;;;;;;;;;4991010;28;20756;-69
2024/02/20 01:01:30;;;;;;;36.70;8.18;;;;;;;;;;4992560;28;20543;-69
2024/02/20 01:03:55;;;;;;;44.05;5.22;;;;;;;;;;4992315;28;20034;-69
2024/02/20 01:06:20;;;;;;;37.22;5.38;;;;;;;;;;4989933;28;20046;-69
2024/02/20 01:08:45;;;;;;;30.90;5.53;;;;;;;;;;4987926;28;20026;-69
2024/02/20 01:11:10;;;;;;;35.53;5.73;;;;;;;;;;4992329;28;20022;-69
2024/02/20 01:13:37;;;;;;;31.13;5.70;;;;;;;;;;4992380;28;20752;-69
2024/02/20 01:16:02;;;;;;;43.00;5.47;;;;;;;;;;4989957;28;20319;-69
2024/02/20 01:18:27;;;;;;;31.35;4.70;;;;;;;;;;4991727;28;20026;-69
2024/02/20 01:20:53;;;;;;;37.15;5.40;;;;;;;;;;4992952;28;20018;-69
2024/02/20 01:23:18;;;;;;;30.45;4.75;;;;;;;;;;4991579;28;20389;-69
2024/02/20 01:25:43;;;;;;;39.50;6.18;;;;;;;;;;4992410;28;20381;-70
2024/02/20 01:28:09;;;;;;;53.83;5.80;;;;;;;;;;4987944;28;20026;-69
2024/02/20 01:30:34;;;;;;;42.17;6.13;;;;;;;;;;4992630;28;20105;-69
2024/02/20 01:33:00;;;;;;;25.17;4.47;;;;;;;;;;4989605;28;20501;-69
2024/02/20 01:35:26;;;;;;;37.70;5.43;;;;;;;;;;4991498;28;20018;-69
2024/02/20 01:37:52;;;;;;;28.55;5.13;;;;;;;;;;4991791;28;20385;-69
2024/02/20 01:40:18;;;;;;;34.92;5.47;;;;;;;;;;4991976;28;20019;-69
2024/02/20 01:42:54;;;;;;;34.55;4.35;;;;;;;;;;4990845;28;20087;-69
2024/02/20 01:45:19;;;;;;;28.35;5.03;;;;;;;;;;4991113;28;20121;-69
2024/02/20 01:47:44;;;;;;;28.53;4.93;;;;;;;;;;4991978;28;20094;-69
2024/02/20 01:50:10;;;;;;;45.47;5.20;;;;;;;;;;4986408;28;20277;-69
2024/02/20 01:52:35;;;;;;;30.33;4.65;;;;;;;;;;4991489;28;20034;-69
2024/02/20 01:55:01;;;;;;;29.87;4.20;;;;;;;;;;4991643;28;20018;-70
2024/02/20 01:57:26;;;;;;;41.30;5.03;;;;;;;;;;4988244;28;20820;-69
2024/02/20 01:59:51;;;;;;;26.53;4.70;;;;;;;;;;4991731;28;20366;-69
2024/02/20 02:02:16;;;;;;;39.53;5.93;;;;;;;;;;4991028;28;20276;-69
2024/02/20 02:04:42;;;;;;;30.03;4.77;;;;;;;;;;4991109;28;20065;-69
2024/02/20 02:07:07;;;;;;;44.83;7.03;;;;;;;;;;4990869;28;20318;-69
2024/02/20 02:09:32;;;;;;;28.50;5.00;;;;;;;;;;4986397;28;20280;-69
2024/02/20 02:11:57;;;;;;;31.07;5.77;;;;;;;;;;4990218;28;20093;-69
2024/02/20 02:14:22;;;;;;;36.93;6.30;;;;;;;;;;4990491;28;20305;-69
2024/02/20 02:16:48;;;;;;;34.70;4.97;;;;;;;;;;4991006;28;20338;-69
2024/02/20 02:19:13;;;;;;;30.67;5.13;;;;;;;;;;4990565;28;20288;-69
2024/02/20 02:21:38;;;;;;;36.97;4.80;;;;;;;;;;4990520;28;20038;-69
2024/02/20 02:24:05;;;;;;;30.13;4.85;;;;;;;;;;4990828;28;20663;-69
2024/02/20 02:26:31;;;;;;;40.80;5.70;;;;;;;;;;4984190;28;20512;-70
2024/02/20 02:28:56;;;;;;;42.40;6.72;;;;;;;;;;4990281;28;20026;-69
2024/02/20 02:31:21;;;;;;;31.17;4.80;;;;;;;;;;4990666;28;20026;-69
2024/02/20 02:33:46;;;;;;;39.27;6.60;;;;;;;;;;4990667;28;20268;-69
2024/02/20 02:36:12;;;;;;;36.30;5.43;;;;;;;;;;4989097;28;20278;-69
2024/02/20 02:38:38;;;;;;;31.98;5.35;;;;;;;;;;4989773;28;20010;-69
2024/02/20 02:41:03;;;;;;;39.47;7.20;;;;;;;;;;4990635;28;20022;-69
2024/02/20 02:43:28;;;;;;;35.30;4.80;;;;;;;;;;4989831;28;20023;-69
2024/02/20 02:45:53;;;;;;;49.83;6.77;;;;;;;;;;4990085;28;20022;-69
2024/02/20 02:48:18;;;;;;;46.30;6.80;;;;;;;;;;4990232;28;20293;-69
2024/02/20 02:50:43;;;;;;;37.50;5.97;;;;;;;;;;4990246;28;20097;-69
2024/02/20 02:53:09;;;;;;;42.60;5.88;;;;;;;;;;4989169;28;20788;-69
2024/02/20 02:55:34;;;;;;;36.88;6.75;;;;;;;;;;4990082;28;20505;-70
2024/02/20 02:57:59;;;;;;;45.80;7.77;;;;;;;;;;4985278;28;20038;-70
2024/02/20 03:00:25;;;;;;;44.30;6.32;;;;;;;;;;4987407;28;20279;-69
2024/02/20 03:02:50;;;;;;;32.58;6.25;;;;;;;;;;4986789;28;20088;-69
2024/02/20 03:05:17;;;;;;;36.53;9.37;;;;;;;;;;4989831;28;20022;-69
2024/02/20 03:07:43;;;;;;;40.75;8.05;;;;;;;;;;4990539;28;20262;-69
2024/02/20 03:10:08;;;;;;;44.05;7.75;;;;;;;;;;4990655;28;20019;-69
2024/02/20 03:12:33;;;;;;;34.17;6.07;;;;;;;;;;4990321;28;21092;-69
2024/02/20 03:14:59;;;;;;;42.38;6.53;;;;;;;;;;4992728;28;20273;-69
2024/02/20 03:17:25;;;;;;;44.53;8.18;;;;;;;;;;4989731;28;20089;-69
2024/02/20 03:19:50;;;;;;;33.60;7.13;;;;;;;;;;4990510;28;20019;-69
2024/02/20 03:22:15;;;;;;;46.17;7.50;;;;;;;;;;4989284;28;20084;-69
2024/02/20 03:24:41;;;;;;;42.28;10.85;;;;;;;;;;4984691;28;20585;-69
2024/02/20 03:27:06;;;;;;;36.08;8.07;;;;;;;;;;4989463;28;20030;-69
2024/02/20 03:29:32;;;;;;;42.20;7.28;;;;;;;;;;4990118;28;20110;-69
2024/02/20 03:31:59;;;;;;;37.40;6.70;;;;;;;;;;4986947;28;20109;-69
2024/02/20 03:34:24;;;;;;;41.58;8.60;;;;;;;;;;4989740;28;20253;-69
2024/02/20 03:36:49;;;;;;;42.58;7.20;;;;;;;;;;4989805;28;20148;-69
2024/02/20 03:39:15;;;;;;;45.83;7.23;;;;;;;;;;4990189;28;20188;-69
2024/02/20 03:41:40;;;;;;;35.17;6.10;;;;;;;;;;4989970;28;20337;-69
2024/02/20 03:44:05;;;;;;;48.40;7.73;;;;;;;;;;4989290;28;20293;-69
2024/02/20 03:46:30;;;;;;;36.77;8.13;;;;;;;;;;4983284;28;20288;-69
2024/02/20 03:48:55;;;;;;;44.05;7.20;;;;;;;;;;4986511;28;20324;-69
2024/02/20 03:51:20;;;;;;;62.53;12.37;;;;;;;;;;4989762;28;20081;-70
2024/02/20 03:53:46;;;;;;;39.23;9.50;;;;;;;;;;4989765;28;20261;-70
2024/02/20 03:56:12;;;;;;;42.53;7.72;;;;;;;;;;4989980;28;20300;-69
2024/02/20 03:58:37;;;;;;;47.15;8.55;;;;;;;;;;4989831;28;20490;-69
2024/02/20 04:01:02;;;;;;;40.55;8.20;;;;;;;;;;4989974;28;20026;-69
2024/02/20 04:03:27;;;;;;;41.50;8.32;;;;;;;;;;4989539;28;20756;-69
2024/02/20 04:05:53;;;;;;;34.50;8.17;;;;;;;;;;4990202;28;20105;-69
2024/02/20 04:08:18;;;;;;;41.67;7.73;;;;;;;;;;4993584;28;20300;-69
2024/02/20 04:10:44;;;;;;;38.95;7.85;;;;;;;;;;4993174;28;20343;-69
2024/02/20 04:13:09;;;;;;;51.83;8.27;;;;;;;;;;4992201;28;20030;-70
2024/02/20 04:15:34;;;;;;;33.47;8.63;;;;;;;;;;4993182;28;20034;-69
2024/02/20 04:18:00;;;;;;;43.15;9.05;;;;;;;;;;4993477;28;20579;-69
2024/02/20 04:20:25;;;;;;;33.70;7.90;;;;;;;;;;4993026;28;20026;-69
2024/02/20 04:22:50;;;;;;;35.47;7.15;;;;;;;;;;4993333;28;20262;-69
2024/02/20 04:25:15;;;;;;;36.07;8.03;;;;;;;;;;4992245;28;20065;-69
2024/02/20 04:27:40;;;;;;;41.50;7.78;;;;;;;;;;4992788;28;20262;-69
2024/02/20 04:30:07;;;;;;;44.72;8.65;;;;;;;;;;4993281;28;20120;-69
2024/02/20 04:32:32;;;;;;;42.08;7.47;;;;;;;;;;4993314;28;20025;-69
2024/02/20 04:34:57;;;;;;;50.58;8.80;;;;;;;;;;4992905;28;20023;-69
2024/02/20 04:37:22;;;;;;;46.72;9.40;;;;;;;;;;4986817;28;20273;-69
2024/02/20 04:39:47;;;;;;;37.90;7.93;;;;;;;;;;4990214;28;20569;-70
2024/02/20 04:42:13;;;;;;;41.67;7.45;;;;;;;;;;4991550;28;20266;-69
2024/02/20 04:44:38;;;;;;;41.90;8.70;;;;;;;;;;4992137;28;20033;-69
2024/02/20 04:47:04;;;;;;;43.13;8.45;;;;;;;;;;4992926;28;20328;-69
2024/02/20 04:49:29;;;;;;;46.88;9.98;;;;;;;;;;4992782;28;20033;-69
2024/02/20 04:51:54;;;;;;;36.93;8.50;;;;;;;;;;4993397;28;20030;-69
2024/02/20 04:54:19;;;;;;;29.40;7.40;;;;;;;;;;4991192;28;20281;-69
2024/02/20 04:56:44;;;;;;;41.53;8.60;;;;;;;;;;4992367;28;20026;-69
2024/02/20 04:59:10;;;;;;;35.13;6.90;;;;;;;;;;4992573;28;20262;-69
2024/02/20 05:01:35;;;;;;;39.43;7.70;;;;;;;;;;4992536;28;20357;-69
2024/02/20 05:04:00;;;;;;;33.93;7.63;;;;;;;;;;4992353;28;20265;-69
2024/02/20 05:06:25;;;;;;;49.97;8.60;;;;;;;;;;4992564;28;20261;-69
2024/02/20 05:08:50;;;;;;;42.07;8.57;;;;;;;;;;4992080;28;20616;-70
2024/02/20 05:11:15;;;;;;;40.33;8.38;;;;;;;;;;4990195;28;20274;-69
2024/02/20 05:13:41;;;;;;;45.17;9.23;;;;;;;;;;4991723;28;20007;-69
2024/02/20 05:16:06;;;;;;;50.50;10.35;;;;;;;;;;4992319;28;20457;-69
2024/02/20 05:18:31;;;;;;;42.28;9.80;;;;;;;;;;4986607;28;20037;-69
2024/02/20 05:20:57;;;;;;;46.60;9.53;;;;;;;;;;4991369;28;20022;-69
2024/02/20 05:23:22;;;;;;;41.85;9.27;;;;;;;;;;4992358;28;20265;-69
2024/02/20 05:25:47;;;;;;;43.25;9.02;;;;;;;;;;4991566;28;20390;-69
2024/02/20 05:28:13;;;;;;;48.90;9.90;;;;;;;;;;4990202;28;20345;-69
2024/02/20 05:30:38;;;;;;;55.60;9.55;;;;;;;;;;4991951;28;20034;-69
2024/02/20 05:33:04;;;;;;;45.45;9.73;;;;;;;;;;4992157;28;20046;-69
2024/02/20 05:35:29;;;;;;;43.00;9.52;;;;;;;;;;4989183;28;20029;-69
2024/02/20 05:37:55;;;;;;;42.93;9.13;;;;;;;;;;4987004;28;20373;-69
2024/02/20 05:40:20;;;;;;;38.45;9.20;;;;;;;;;;4990925;28;20384;-69
2024/02/20 05:42:45;;;;;;;50.20;9.57;;;;;;;;;;4991196;28;20105;-69
2024/02/20 05:45:10;;;;;;;42.67;9.70;;;;;;;;;;4990837;28;20764;-69
2024/02/20 05:47:36;;;;;;;38.53;9.15;;;;;;;;;;4991652;28;20396;-69
2024/02/20 05:50:01;;;;;;;37.67;9.35;;;;;;;;;;4991876;28;20494;-69
2024/02/20 05:52:26;;;;;;;35.05;10.25;;;;;;;;;;4991753;28;20101;-69
2024/02/20 05:54:51;;;;;;;39.63;9.80;;;;;;;;;;4991131;28;20393;-69
2024/02/20 05:57:17;;;;;;;55.22;10.65;;;;;;;;;;4991057;28;20265;-69
2024/02/20 05:59:42;;;;;;;33.47;9.60;;;;;;;;;;4989513;28;20283;-69
2024/02/20 06:02:07;;;;;;;57.22;11.32;;;;;;;;;;4991898;28;20511;-69
2024/02/20 06:04:32;;;;;;;39.33;10.05;;;;;;;;;;4990217;28;20022;-69
2024/02/20 06:06:57;;;;;;;34.30;9.40;;;;;;;;;;4991572;28;20040;-69
2024/02/20 06:09:22;;;;;;;46.57;8.63;;;;;;;;;;4989836;28;20618;-70
2024/02/20 06:11:48;;;;;;;34.97;10.43;;;;;;;;;;4990683;28;20285;-69
2024/02/20 06:14:13;;;;;;;44.13;9.75;;;;;;;;;;4989046;28;20022;-69
2024/02/20 06:16:38;;;;;;;38.83;10.27;;;;;;;;;;4990223;28;20104;-69
2024/02/20 06:19:04;;;;;;;37.10;8.90;;;;;;;;;;4991152;28;20025;-69
2024/02/20 06:21:29;;;;;;;39.85;9.18;;;;;;;;;;4991054;28;20386;-69
2024/02/20 06:23:54;;;;;;;48.50;9.67;;;;;;;;;;4990387;28;20098;-69
2024/02/20 06:26:19;;;;;;;51.50;9.25;;;;;;;;;;4990517;28;20268;-69
2024/02/20 06:28:45;;;;;;;44.70;8.88;;;;;;;;;;4986886;28;20026;-69
2024/02/20 06:31:10;;;;;;;46.90;10.63;;;;;;;;;;4987027;28;20025;-69
2024/02/20 06:33:35;;;;;;;43.00;9.65;;;;;;;;;;4988462;28;20022;-70
2024/02/20 06:36:00;;;;;;;39.83;9.52;;;;;;;;;;4990663;28;20305;-69
2024/02/20 06:38:31;;;;;;;49.57;9.97;;;;;;;;;;4991126;28;20508;-69
2024/02/20 06:40:57;;;;;;;39.65;8.73;;;;;;;;;;4990285;28;20262;-69
2024/02/20 06:43:22;;;;;;;45.17;9.32;;;;;;;;;;4984037;28;20414;-69
2024/02/20 06:45:47;;;;;;;50.13;11.20;;;;;;;;;;4985186;28;20037;-69
2024/02/20 06:48:12;;;;;;;34.83;9.30;;;;;;;;;;4986757;28;20314;-70
2024/02/20 06:50:38;;;;;;;39.60;9.70;;;;;;;;;;4983885;28;20278;-69
2024/02/20 06:53:03;;;;;;;44.23;9.83;;;;;;;;;;4987247;28;20312;-69
2024/02/20 06:55:28;;;;;;;35.72;10.60;;;;;;;;;;4988149;28;20266;-69
2024/02/20 06:57:58;;;;;;;44.63;10.15;;;;;;;;;;4985523;28;20564;-69
2024/02/20 07:00:24;;;;;;;41.95;9.10;;;;;;;;;;4988780;28;20038;-69
2024/02/20 07:02:49;;;;;;;40.03;8.65;;;;;;;;;;4988737;28;20401;-69
2024/02/20 07:05:15;;;;;;;43.25;8.57;;;;;;;;;;4985205;28;20023;-69
2024/02/20 07:07:40;;;;;;;42.88;9.30;;;;;;;;;;4986013;28;20077;-70
2024/02/20 07:10:09;;;;;;;40.80;8.93;;;;;;;;;;4989510;28;20030;-69
2024/02/20 07:12:34;;;;;;;38.05;8.98;;;;;;;;;;4990127;28;20041;-69
2024/02/20 07:15:03;;;;;;;33.80;8.80;;;;;;;;;;4988253;28;20022;-69
2024/02/20 07:17:28;;;;;;;44.83;9.18;;;;;;;;;;4987515;28;20072;-69
2024/02/20 07:19:54;;;;;;;38.70;8.18;;;;;;;;;;4989868;28;20729;-68
2024/02/20 07:22:19;;;;;;;46.75;10.35;;;;;;;;;;4986880;28;20062;-69
2024/02/20 07:24:45;;;;;;;51.03;10.27;;;;;;;;;;4988260;28;20512;-70
2024/02/20 07:27:10;;;;;;;42.07;10.37;;;;;;;;;;4989086;28;20265;-67
2024/02/20 07:29:39;;;;;;;37.87;9.90;;;;;;;;;;4988662;28;20289;-68
2024/02/20 07:32:04;;;;;;;34.63;9.02;;;;;;;;;;4989365;28;20687;-68
2024/02/20 07:34:29;;;;;;;58.05;9.57;;;;;;;;;;4988667;28;20105;-68
2024/02/20 07:36:55;;;;;;;47.33;10.52;;;;;;;;;;4987353;28;20022;-69
2024/02/20 07:39:20;;;;;;;48.42;10.70;;;;;;;;;;4989647;28;20329;-67
2024/02/20 07:41:45;;;;;;;38.92;9.65;;;;;;;;;;4988679;28;20034;-67
2024/02/20 07:44:10;;;;;;;20.95;5.82;;;;;;;;;;4989502;28;20304;-70
2024/02/20 07:46:37;;;;;;;38.75;8.90;;;;;;;;;;4989524;28;20045;-68
2024/02/20 07:49:02;;;;;;;33.35;8.25;;;;;;;;;;4988814;28;20437;-68
2024/02/20 07:51:29;;;;;;;37.85;8.85;;;;;;;;;;4989845;28;20025;-68
2024/02/20 07:53:54;;;;;;;40.90;9.98;;;;;;;;;;4988920;28;20053;-68
2024/02/20 07:56:23;;;;;;;54.37;9.50;;;;;;;;;;4984033;28;20054;-68
2024/02/20 07:58:48;;;;;;;39.75;9.48;;;;;;;;;;4985892;28;20277;-68
2024/02/20 08:01:13;;;;;;;57.93;11.03;;;;;;;;;;4987289;28;20422;-67
2024/02/20 08:03:39;;;;;;;56.50;10.53;;;;;;;;;;4989421;28;20282;-68
2024/02/20 08:06:05;;;;;;;56.58;11.07;;;;;;;;;;4988454;28;20261;-70
2024/02/20 08:08:30;;;;;;;38.47;9.95;;;;;;;;;;4986411;28;20050;-67
2024/02/20 08:10:55;;;;;;;63.03;9.63;;;;;;;;;;4988402;28;20019;-68
2024/02/20 08:13:22;;;;;;;38.25;10.32;;;;;;;;;;4988087;28;20782;-68
2024/02/20 08:15:47;;;;;;;48.83;10.35;;;;;;;;;;4985516;28;20590;-68
2024/02/20 08:18:13;;;;;;;32.85;9.52;;;;;;;;;;4987822;28;20034;-68
2024/02/20 08:20:38;;;;;;;37.50;9.40;;;;;;;;;;4985104;28;20296;-67
2024/02/20 08:23:03;;;;;;;40.73;9.77;;;;;;;;;;4985515;28;20026;-68
2024/02/20 08:25:29;;;;;;;30.42;7.95;;;;;;;;;;4989034;28;20276;-68
2024/02/20 08:27:54;;;;;;;52.05;10.18;;;;;;;;;;4989168;28;20426;-68
2024/02/20 08:30:22;;;;;;;48.72;8.27;;;;;;;;;;4989425;28;20030;-67
2024/02/20 08:32:47;;;;;;;39.53;11.10;;;;;;;;;;4989843;28;20088;-68
2024/02/20 08:35:12;;;;;;;38.13;10.13;;;;;;;;;;4988810;28;20030;-68
2024/02/20 08:37:38;;;;;;;34.90;9.40;;;;;;;;;;4989511;28;20364;-68
2024/02/20 08:40:03;;;;;;;46.38;10.50;;;;;;;;;;4988178;28;20269;-68
2024/02/20 08:42:28;;;;;;;55.20;10.15;;;;;;;;;;4989570;28;20453;-68
2024/02/20 08:44:53;;;;;;;48.60;11.17;;;;;;;;;;4986462;28;20113;-68
2024/02/20 08:47:21;;;;;;;38.30;10.50;;;;;;;;;;4988613;28;20305;-68
2024/02/20 08:49:49;;;;;;;54.08;10.88;;;;;;;;;;4988547;28;20050;-68
2024/02/20 08:52:14;;;;;;;45.67;11.60;;;;;;;;;;4989105;28;20014;-68
2024/02/20 08:54:39;;;;;;;44.07;11.17;;;;;;;;;;4992302;28;20077;-68
2024/02/20 08:57:05;;;;;;;48.08;11.43;;;;;;;;;;4991460;28;20304;-68
2024/02/20 08:59:30;;;;;;;45.78;11.15;;;;;;;;;;4991405;28;20089;-68
2024/02/20 09:01:55;;;;;;;54.70;10.10;;;;;;;;;;4990657;28;20105;-68
2024/02/20 09:04:22;;;;;;;37.63;10.38;;;;;;;;;;4990720;28;20282;-68
2024/02/20 09:06:47;;;;;;;32.47;10.13;;;;;;;;;;4991183;28;20021;-68
2024/02/20 09:09:12;;;;;;;59.67;12.00;;;;;;;;;;4990961;28;20034;-68
2024/02/20 09:11:38;;;;;;;40.13;10.47;;;;;;;;;;4989649;28;20297;-68
2024/02/20 09:14:03;;;;;;;49.33;12.18;;;;;;;;;;4991764;28;20265;-68
2024/02/20 09:16:28;;;;;;;50.93;12.63;;;;;;;;;;4991002;28;20046;-68
2024/02/20 09:18:53;;;;;;;34.23;9.83;;;;;;;;;;4990991;28;20380;-68
2024/02/20 09:21:19;;;;;;;42.85;11.75;;;;;;;;;;4991446;28;20270;-69
2024/02/20 09:23:44;;;;;;;47.93;11.40;;;;;;;;;;4990034;28;20033;-68
2024/02/20 09:26:10;;;;;;;47.92;13.50;;;;;;;;;;4990782;28;20835;-68
2024/02/20 09:28:36;;;;;;;37.15;12.18;;;;;;;;;;4992072;28;20082;-68
2024/02/20 09:31:01;;;;;;;52.65;12.57;;;;;;;;;;4991882;28;20076;-68
2024/02/20 09:33:28;;;;;;;59.28;13.00;;;;;;;;;;4990566;28;20330;-68
2024/02/20 09:35:53;;;;;;;46.25;12.57;;;;;;;;;;4990735;28;20420;-68
2024/02/20 09:38:18;;;;;;;53.33;13.23;;;;;;;;;;4991713;28;20084;-68
2024/02/20 09:40:44;;;;;;;65.97;14.68;;;;;;;;;;4990811;28;20279;-68
2024/02/20 09:43:09;;;;;;;51.53;13.60;;;;;;;;;;4989231;28;20026;-68
2024/02/20 09:45:39;;;;;;;60.53;15.25;;;;;;;;;;4991215;28;20112;-68
2024/02/20 09:48:06;;;;;;;46.45;11.85;;;;;;;;;;4990747;28;20028;-68
2024/02/20 09:50:32;;;;;;;54.25;15.57;;;;;;;;;;4990131;28;20613;-68
2024/02/20 09:52:57;;;;;;;47.00;11.75;;;;;;;;;;4991371;28;20117;-68
2024/02/20 09:55:26;;;;;;;49.33;11.17;;;;;;;;;;4990140;28;20026;-68
2024/02/20 09:57:51;;;;;;;52.10;12.30;;;;;;;;;;4990643;28;21046;-68
2024/02/20 10:00:20;;;;;;;63.50;15.00;;;;;;;;;;4991187;28;20093;-68
2024/02/20 10:02:48;;;;;;;38.92;11.63;;;;;;;;;;4989450;28;20045;-68
2024/02/20 10:05:17;;;;;;;21.13;6.53;;;;;;;;;;4989299;28;20027;-68
2024/02/20 10:07:43;;;;;;;50.42;11.93;;;;;;;;;;4986527;28;20030;-68
2024/02/20 10:10:11;;;;;;;43.60;11.68;;;;;;;;;;4990380;28;20030;-68
2024/02/20 10:12:39;;;;;;;42.05;10.07;;;;;;;;;;4989385;28;20030;-68
2024/02/20 10:15:05;;;;;;;42.03;9.00;;;;;;;;;;4988375;28;20041;-68
2024/02/20 10:17:30;;;;;;;37.85;10.77;;;;;;;;;;4990481;28;20023;-68
2024/02/20 10:20:03;;;;;;;46.08;11.00;;;;;;;;;;4991210;28;20077;-69
2024/02/20 10:22:28;;;;;;;46.25;9.75;;;;;;;;;;4988826;28;20489;-69
2024/02/20 10:25:01;;;;;;;46.33;8.73;;;;;;;;;;4985525;28;20080;-69
2024/02/20 10:27:27;;;;;;;43.50;10.05;;;;;;;;;;4981630;28;20277;-69
2024/02/20 10:29:52;;;;;;;32.38;9.30;;;;;;;;;;4980712;28;20310;-69
2024/02/20 10:32:20;;;;;;;41.80;10.53;;;;;;;;;;4988760;28;20121;-68
2024/02/20 10:34:47;;;;;;;36.45;9.57;;;;;;;;;;4983752;28;20265;-69
2024/02/20 10:37:12;;;;;;;54.60;9.52;;;;;;;;;;4981602;28;20084;-68
2024/02/20 10:39:37;;;;;;;42.47;8.53;;;;;;;;;;4986266;28;20369;-69
2024/02/20 10:42:05;;;;;;;33.03;9.60;;;;;;;;;;4989003;28;20273;-69
2024/02/20 10:44:30;;;;;;;38.20;6.82;;;;;;;;;;4990603;28;20065;-68
2024/02/20 10:46:56;;;;;;;44.47;12.13;;;;;;;;;;4990792;28;20047;-69
2024/02/20 10:49:30;;;;;;;39.03;9.45;;;;;;;;;;4988412;28;20477;-69
2024/02/20 10:51:56;;;;;;;36.38;7.80;;;;;;;;;;4985520;28;20139;-69
2024/02/20 10:54:22;;;;;;;13.32;4.80;;;;;;;;;;4986752;28;20210;-69
2024/02/20 10:56:48;;;;;;;35.33;6.68;;;;;;;;;;4983374;28;20057;-69
2024/02/20 10:59:13;;;;;;;42.90;9.25;;;;;;;;;;4989296;28;20058;-69
2024/02/20 11:01:39;;;;;;;44.35;10.07;;;;;;;;;;4987744;28;20034;-69
2024/02/20 11:04:05;;;;;;;36.42;7.40;;;;;;;;;;4989525;28;20030;-69
2024/02/20 11:06:35;;;;;;;48.70;9.57;;;;;;;;;;4989260;28;20026;-69
2024/02/20 11:09:13;;;;;;;33.85;9.88;;;;;;;;;;4987950;28;20030;-69
2024/02/20 11:11:38;;;;;;;44.65;9.48;;;;;;;;;;4989125;28;20045;-69
2024/02/20 11:14:04;;;;;;;26.50;7.43;;;;;;;;;;4986495;28;20022;-69
2024/02/20 11:16:33;;;;;;;41.13;9.18;;;;;;;;;;4990211;28;20493;-69
2024/02/20 11:18:58;;;;;;;42.22;9.35;;;;;;;;;;4989671;28;20402;-69
2024/02/20 11:21:25;;;;;;;26.43;7.00;;;;;;;;;;4988096;28;20037;-69
2024/02/20 11:23:50;;;;;;;41.00;8.15;;;;;;;;;;4988384;28;20459;-69
2024/02/20 11:26:15;;;;;;;37.90;8.73;;;;;;;;;;4989815;28;20546;-69
2024/02/20 11:28:40;;;;;;;12.80;3.27;;;;;;;;;;4988931;28;20274;-69
2024/02/20 11:31:05;;;;;;;31.77;8.57;;;;;;;;;;4989522;28;20273;-69
2024/02/20 11:33:31;;;;;;;42.75;8.98;;;;;;;;;;4989480;28;20274;-69
2024/02/20 11:35:57;;;;;;;37.40;8.13;;;;;;;;;;4989523;28;20025;-69
2024/02/20 11:38:22;;;;;;;41.10;5.72;;;;;;;;;;4988654;28;20346;-68
2024/02/20 11:40:47;;;;;;;25.52;5.68;;;;;;;;;;4989768;28;20018;-69
2024/02/20 11:43:15;;;;;;;35.15;8.65;;;;;;;;;;4989376;28;20141;-69
2024/02/20 11:45:41;;;;;;;34.15;8.05;;;;;;;;;;4989458;28;20404;-69
2024/02/20 11:48:07;;;;;;;40.03;8.10;;;;;;;;;;4989411;28;20018;-68
2024/02/20 11:50:39;;;;;;;49.70;8.27;;;;;;;;;;4986579;28;20096;-69
2024/02/20 11:53:10;;;;;;;38.75;7.30;;;;;;;;;;4989372;28;20504;-69
2024/02/20 11:55:38;;;;;;;21.30;6.13;;;;;;;;;;4989261;28;20023;-69
2024/02/20 11:58:04;;;;;;;27.63;8.55;;;;;;;;;;4988447;28;20023;-69
2024/02/20 12:00:38;;;;;;;27.65;6.18;;;;;;;;;;4988917;28;20030;-68
2024/02/20 12:03:04;;;;;;;19.52;4.43;;;;;;;;;;4986430;28;20053;-69
2024/02/20 12:05:37;;;;;;;30.13;8.13;;;;;;;;;;4987993;28;20503;-69
2024/02/20 12:08:09;;;;;;;40.72;7.25;;;;;;;;;;4988345;28;20065;-69
2024/02/20 12:10:35;;;;;;;24.75;6.82;;;;;;;;;;4988180;28;20053;-69
2024/02/20 12:13:10;;;;;;;32.72;7.25;;;;;;;;;;4989046;28;20054;-69
2024/02/20 12:15:36;;;;;;;30.23;8.02;;;;;;;;;;4987433;28;20046;-69
2024/02/20 12:18:01;;;;;;;33.28;7.28;;;;;;;;;;4988970;28;20023;-69
2024/02/20 12:20:26;;;;;;;15.47;3.93;;;;;;;;;;4988682;28;20317;-69
2024/02/20 12:22:57;;;;;;;20.48;4.43;;;;;;;;;;4987662;28;20352;-68
2024/02/20 12:25:22;;;;;;;26.67;6.30;;;;;;;;;;4988117;28;20038;-69
2024/02/20 12:27:48;;;;;;;36.00;6.35;;;;;;;;;;4991692;28;20073;-69
2024/02/20 12:30:14;;;;;;;30.77;5.13;;;;;;;;;;4992434;28;20026;-69
2024/02/20 12:32:40;;;;;;;25.45;3.55;;;;;;;;;;4992876;28;20109;-69
2024/02/20 12:35:05;;;;;;;31.40;6.20;;;;;;;;;;4990893;28;20307;-69
2024/02/20 12:37:30;;;;;;;30.13;6.07;;;;;;;;;;4986496;28;20697;-69
2024/02/20 12:39:56;;;;;;;48.40;6.47;;;;;;;;;;4990631;28;20109;-69
2024/02/20 12:42:21;;;;;;;23.97;4.93;;;;;;;;;;4992859;28;20378;-69
2024/02/20 12:44:46;;;;;;;29.08;5.78;;;;;;;;;;4987765;28;20281;-69
2024/02/20 12:47:12;;;;;;;31.35;5.88;;;;;;;;;;4992841;28;20034;-69
2024/02/20 12:49:38;;;;;;;24.98;5.47;;;;;;;;;;4993090;28;20031;-69
2024/02/20 12:52:03;;;;;;;19.70;5.07;;;;;;;;;;4989187;28;20026;-69
2024/02/20 12:54:28;;;;;;;37.53;5.43;;;;;;;;;;4991452;28;20054;-69
2024/02/20 12:56:56;;;;;;;22.83;4.30;;;;;;;;;;4991289;28;20018;-69
2024/02/20 12:59:21;;;;;;;20.17;2.95;;;;;;;;;;4992436;28;20695;-69
2024/02/20 13:01:46;;;;;;;30.48;4.35;;;;;;;;;;4988632;28;20101;-69
2024/02/20 13:04:12;;;;;;;31.90;4.80;;;;;;;;;;4989726;28;20031;-69
2024/02/20 13:06:37;;;;;;;26.97;5.90;;;;;;;;;;4990142;28;20744;-69
2024/02/20 13:09:02;;;;;;;19.33;3.50;;;;;;;;;;4992564;28;20349;-69
2024/02/20 13:11:28;;;;;;;24.63;4.43;;;;;;;;;;4992086;28;20060;-67
2024/02/20 13:13:56;;;;;;;28.77;5.43;;;;;;;;;;4991613;28;20393;-69
2024/02/20 13:16:22;;;;;;;28.88;5.97;;;;;;;;;;4992437;28;20496;-67
2024/02/20 13:18:47;;;;;;;42.43;7.63;;;;;;;;;;4987517;28;20035;-67
2024/02/20 13:21:14;;;;;;;26.98;4.70;;;;;;;;;;4988025;28;20300;-67
2024/02/20 13:23:39;;;;;;;11.23;3.13;;;;;;;;;;4989426;28;20126;-69
2024/02/20 13:26:04;;;;;;;22.97;4.50;;;;;;;;;;4992384;28;20492;-69
2024/02/20 13:28:30;;;;;;;37.05;5.75;;;;;;;;;;4992076;28;20319;-69
2024/02/20 13:30:55;;;;;;;29.15;5.88;;;;;;;;;;4992327;28;20057;-69
2024/02/20 13:33:20;;;;;;;28.97;5.50;;;;;;;;;;4991577;28;20117;-69
2024/02/20 13:35:45;;;;;;;26.75;5.78;;;;;;;;;;4989973;28;20276;-70
2024/02/20 13:38:13;;;;;;;31.30;4.73;;;;;;;;;;4989951;28;20026;-69
2024/02/20 13:40:38;;;;;;;25.63;4.47;;;;;;;;;;4991532;28;20265;-69
2024/02/20 13:43:08;;;;;;;28.30;4.95;;;;;;;;;;4991552;28;20023;-69
2024/02/20 13:45:41;;;;;;;20.70;4.03;;;;;;;;;;4991861;28;20049;-70
2024/02/20 13:48:10;;;;;;;25.73;4.88;;;;;;;;;;4991113;28;20030;-69
2024/02/20 13:50:35;;;;;;;19.48;5.20;;;;;;;;;;4990876;28;20567;-69
2024/02/20 13:53:01;;;;;;;25.07;4.40;;;;;;;;;;4991263;28;20121;-69
2024/02/20 13:55:26;;;;;;;32.80;4.03;;;;;;;;;;4990531;28;20273;-67
2024/02/20 13:57:51;;;;;;;23.92;4.30;;;;;;;;;;4991319;28;20030;-67
2024/02/20 14:00:19;;;;;;;26.48;5.45;;;;;;;;;;4991949;28;20022;-67
2024/02/20 14:02:44;;;;;;;22.63;4.97;;;;;;;;;;4990646;28;20026;-68
2024/02/20 14:05:09;;;;;;;14.23;3.92;;;;;;;;;;4990994;28;20026;-67
2024/02/20 14:07:34;;;;;;;19.10;3.80;;;;;;;;;;4991489;28;20077;-67
2024/02/20 14:09:59;;;;;;;21.90;5.57;;;;;;;;;;4991479;28;20269;-67
2024/02/20 14:12:25;;;;;;;24.75;4.82;;;;;;;;;;4991142;28;20062;-67
2024/02/20 14:14:50;;;;;;;30.45;7.07;;;;;;;;;;4989448;28;20018;-67
2024/02/20 14:17:18;;;;;;;40.47;8.32;;;;;;;;;;4984865;28;20050;-67
2024/02/20 14:19:43;;;;;;;29.98;4.15;;;;;;;;;;4991185;28;20740;-67